sensor_id;sensor_type;location;lat;lon;timestamp;P1;durP1;ratioP1;P2;durP2;ratioP2
9836;SDS011;4957;51.412;6.724;2023-09-18T00:00:50;17.00;;;6.90;;
9836;SDS011;4957;51.412;6.724;2023-09-18T00:03:19;14.67;;;8.27;;
9836;SDS011;4957;51.412;6.724;2023-09-18T00:05:46;11.60;;;7.13;;
9836;SDS011;4957;51.412;6.724;2023-09-18T00:08:15;12.43;;;7.20;;
9836;SDS011;4957;51.412;6.724;2023-09-18T00:10:41;15.37;;;7.37;;
9836;SDS011;4957;51.412;6.724;2023-09-18T00:13:08;11.03;;;7.30;;
9836;SDS011;4957;51.412;6.724;2023-09-18T00:15:33;11.27;;;6.57;;
9836;SDS011;4957;51.412;6.724;2023-09-18T00:17:59;12.63;;;7.23;;
9836;SDS011;4957;51.412;6.724;2023-09-18T00:20:26;13.43;;;9.10;;
9836;SDS011;4957;51.412;6.724;2023-09-18T00:22:54;14.70;;;9.07;;
9836;SDS011;4957;51.412;6.724;2023-09-18T00:25:21;10.43;;;6.83;;
9836;SDS011;4957;51.412;6.724;2023-09-18T00:27:47;9.50;;;7.27;;
9836;SDS011;4957;51.412;6.724;2023-09-18T00:30:13;9.80;;;6.67;;
9836;SDS011;4957;51.412;6.724;2023-09-18T00:32:38;11.87;;;6.97;;
9836;SDS011;4957;51.412;6.724;2023-09-18T00:35:07;8.13;;;6.93;;
9836;SDS011;4957;51.412;6.724;2023-09-18T00:37:33;13.43;;;7.20;;
9836;SDS011;4957;51.412;6.724;2023-09-18T00:39:58;12.13;;;7.17;;
9836;SDS011;4957;51.412;6.724;2023-09-18T00:42:25;13.20;;;7.23;;
9836;SDS011;4957;51.412;6.724;2023-09-18T00:44:50;11.83;;;7.17;;
9836;SDS011;4957;51.412;6.724;2023-09-18T00:47:16;10.97;;;7.57;;
9836;SDS011;4957;51.412;6.724;2023-09-18T00:49:43;13.33;;;7.10;;
9836;SDS011;4957;51.412;6.724;2023-09-18T00:52:12;12.40;;;7.43;;
9836;SDS011;4957;51.412;6.724;2023-09-18T00:54:39;11.23;;;7.20;;
9836;SDS011;4957;51.412;6.724;2023-09-18T00:57:07;8.80;;;6.57;;
9836;SDS011;4957;51.412;6.724;2023-09-18T00:59:34;10.90;;;6.80;;
9836;SDS011;4957;51.412;6.724;2023-09-18T01:01:59;9.17;;;7.23;;
9836;SDS011;4957;51.412;6.724;2023-09-18T01:04:26;15.23;;;7.53;;
9836;SDS011;4957;51.412;6.724;2023-09-18T01:06:53;11.00;;;7.20;;
9836;SDS011;4957;51.412;6.724;2023-09-18T01:09:21;9.80;;;6.77;;
9836;SDS011;4957;51.412;6.724;2023-09-18T01:11:53;9.53;;;7.10;;
9836;SDS011;4957;51.412;6.724;2023-09-18T01:14:31;12.40;;;7.13;;
9836;SDS011;4957;51.412;6.724;2023-09-18T01:17:13;11.00;;;6.87;;
9836;SDS011;4957;51.412;6.724;2023-09-18T01:19:41;12.23;;;7.10;;
9836;SDS011;4957;51.412;6.724;2023-09-18T01:22:15;13.57;;;7.17;;
9836;SDS011;4957;51.412;6.724;2023-09-18T01:24:42;13.60;;;7.47;;
9836;SDS011;4957;51.412;6.724;2023-09-18T01:27:09;13.77;;;7.00;;
9836;SDS011;4957;51.412;6.724;2023-09-18T01:29:38;11.13;;;6.97;;
9836;SDS011;4957;51.412;6.724;2023-09-18T01:32:04;13.70;;;7.67;;
9836;SDS011;4957;51.412;6.724;2023-09-18T01:34:34;11.83;;;6.93;;
9836;SDS011;4957;51.412;6.724;2023-09-18T01:37:04;12.77;;;6.90;;
9836;SDS011;4957;51.412;6.724;2023-09-18T01:39:33;11.00;;;6.80;;
9836;SDS011;4957;51.412;6.724;2023-09-18T01:42:00;11.90;;;6.90;;
9836;SDS011;4957;51.412;6.724;2023-09-18T01:44:34;11.33;;;6.77;;
9836;SDS011;4957;51.412;6.724;2023-09-18T01:47:05;14.03;;;7.67;;
9836;SDS011;4957;51.412;6.724;2023-09-18T01:49:37;11.50;;;7.00;;
9836;SDS011;4957;51.412;6.724;2023-09-18T01:52:05;10.40;;;6.43;;
9836;SDS011;4957;51.412;6.724;2023-09-18T01:54:32;8.07;;;6.40;;
9836;SDS011;4957;51.412;6.724;2023-09-18T01:56:58;8.93;;;6.53;;
9836;SDS011;4957;51.412;6.724;2023-09-18T01:59:24;10.17;;;6.63;;
9836;SDS011;4957;51.412;6.724;2023-09-18T02:01:50;10.90;;;6.30;;
9836;SDS011;4957;51.412;6.724;2023-09-18T02:04:17;8.63;;;6.80;;
9836;SDS011;4957;51.412;6.724;2023-09-18T02:06:43;11.17;;;6.90;;
9836;SDS011;4957;51.412;6.724;2023-09-18T02:09:09;8.63;;;7.10;;
9836;SDS011;4957;51.412;6.724;2023-09-18T02:11:36;12.80;;;7.13;;
9836;SDS011;4957;51.412;6.724;2023-09-18T02:14:07;8.63;;;6.60;;
9836;SDS011;4957;51.412;6.724;2023-09-18T02:16:34;12.13;;;7.00;;
9836;SDS011;4957;51.412;6.724;2023-09-18T02:19:02;12.83;;;6.23;;
9836;SDS011;4957;51.412;6.724;2023-09-18T02:21:28;14.03;;;6.50;;
9836;SDS011;4957;51.412;6.724;2023-09-18T02:23:54;12.33;;;7.10;;
9836;SDS011;4957;51.412;6.724;2023-09-18T02:26:20;10.67;;;7.03;;
9836;SDS011;4957;51.412;6.724;2023-09-18T02:28:48;13.13;;;7.23;;
9836;SDS011;4957;51.412;6.724;2023-09-18T02:31:14;15.00;;;6.93;;
9836;SDS011;4957;51.412;6.724;2023-09-18T02:33:40;11.10;;;6.90;;
9836;SDS011;4957;51.412;6.724;2023-09-18T02:36:07;11.50;;;6.90;;
9836;SDS011;4957;51.412;6.724;2023-09-18T02:38:33;10.93;;;7.03;;
9836;SDS011;4957;51.412;6.724;2023-09-18T02:40:59;14.30;;;7.00;;
9836;SDS011;4957;51.412;6.724;2023-09-18T02:43:25;14.57;;;6.53;;
9836;SDS011;4957;51.412;6.724;2023-09-18T02:45:51;15.80;;;6.57;;
9836;SDS011;4957;51.412;6.724;2023-09-18T02:48:17;8.80;;;6.47;;
9836;SDS011;4957;51.412;6.724;2023-09-18T02:50:44;11.33;;;6.87;;
9836;SDS011;4957;51.412;6.724;2023-09-18T02:53:17;8.93;;;6.63;;
9836;SDS011;4957;51.412;6.724;2023-09-18T02:55:50;13.07;;;7.00;;
9836;SDS011;4957;51.412;6.724;2023-09-18T02:58:19;10.67;;;7.10;;
9836;SDS011;4957;51.412;6.724;2023-09-18T03:00:46;9.80;;;6.80;;
9836;SDS011;4957;51.412;6.724;2023-09-18T03:03:13;15.50;;;7.40;;
9836;SDS011;4957;51.412;6.724;2023-09-18T03:05:41;14.47;;;7.83;;
9836;SDS011;4957;51.412;6.724;2023-09-18T03:08:08;11.03;;;7.43;;
9836;SDS011;4957;51.412;6.724;2023-09-18T03:10:35;12.30;;;7.87;;
9836;SDS011;4957;51.412;6.724;2023-09-18T03:13:02;13.83;;;6.83;;
9836;SDS011;4957;51.412;6.724;2023-09-18T03:15:28;13.23;;;7.43;;
9836;SDS011;4957;51.412;6.724;2023-09-18T03:17:55;10.77;;;6.93;;
9836;SDS011;4957;51.412;6.724;2023-09-18T03:20:25;14.30;;;7.27;;
9836;SDS011;4957;51.412;6.724;2023-09-18T03:22:53;9.93;;;6.43;;
9836;SDS011;4957;51.412;6.724;2023-09-18T03:25:20;13.53;;;7.00;;
9836;SDS011;4957;51.412;6.724;2023-09-18T03:27:47;14.53;;;7.13;;
9836;SDS011;4957;51.412;6.724;2023-09-18T03:30:12;14.23;;;6.63;;
9836;SDS011;4957;51.412;6.724;2023-09-18T03:32:41;11.17;;;6.87;;
9836;SDS011;4957;51.412;6.724;2023-09-18T03:35:07;8.27;;;6.47;;
9836;SDS011;4957;51.412;6.724;2023-09-18T03:37:40;14.77;;;6.93;;
9836;SDS011;4957;51.412;6.724;2023-09-18T03:40:06;12.43;;;6.63;;
9836;SDS011;4957;51.412;6.724;2023-09-18T03:42:33;11.27;;;7.43;;
9836;SDS011;4957;51.412;6.724;2023-09-18T03:44:59;13.90;;;6.63;;
9836;SDS011;4957;51.412;6.724;2023-09-18T03:47:25;17.43;;;7.97;;
9836;SDS011;4957;51.412;6.724;2023-09-18T03:49:51;12.17;;;6.77;;
9836;SDS011;4957;51.412;6.724;2023-09-18T03:52:16;13.77;;;7.47;;
9836;SDS011;4957;51.412;6.724;2023-09-18T03:54:43;17.27;;;6.67;;
9836;SDS011;4957;51.412;6.724;2023-09-18T03:57:09;9.73;;;7.27;;
9836;SDS011;4957;51.412;6.724;2023-09-18T03:59:35;15.27;;;7.57;;
9836;SDS011;4957;51.412;6.724;2023-09-18T04:02:00;16.77;;;6.97;;
9836;SDS011;4957;51.412;6.724;2023-09-18T04:04:27;12.47;;;6.90;;
9836;SDS011;4957;51.412;6.724;2023-09-18T04:06:53;15.40;;;7.87;;
9836;SDS011;4957;51.412;6.724;2023-09-18T04:09:19;15.57;;;7.00;;
9836;SDS011;4957;51.412;6.724;2023-09-18T04:11:44;14.23;;;7.67;;
9836;SDS011;4957;51.412;6.724;2023-09-18T04:14:10;12.60;;;7.07;;
9836;SDS011;4957;51.412;6.724;2023-09-18T04:16:36;10.67;;;6.67;;
9836;SDS011;4957;51.412;6.724;2023-09-18T04:19:02;17.40;;;7.10;;
9836;SDS011;4957;51.412;6.724;2023-09-18T04:21:28;11.60;;;6.73;;
9836;SDS011;4957;51.412;6.724;2023-09-18T04:23:56;18.70;;;7.17;;
9836;SDS011;4957;51.412;6.724;2023-09-18T04:26:27;11.77;;;6.73;;
9836;SDS011;4957;51.412;6.724;2023-09-18T04:28:56;10.23;;;6.87;;
9836;SDS011;4957;51.412;6.724;2023-09-18T04:31:22;10.57;;;6.60;;
9836;SDS011;4957;51.412;6.724;2023-09-18T04:33:47;15.63;;;6.67;;
9836;SDS011;4957;51.412;6.724;2023-09-18T04:36:13;13.17;;;6.20;;
9836;SDS011;4957;51.412;6.724;2023-09-18T04:38:39;10.77;;;6.03;;
9836;SDS011;4957;51.412;6.724;2023-09-18T04:41:04;14.27;;;6.17;;
9836;SDS011;4957;51.412;6.724;2023-09-18T04:43:33;13.20;;;6.87;;
9836;SDS011;4957;51.412;6.724;2023-09-18T04:45:59;12.73;;;6.90;;
9836;SDS011;4957;51.412;6.724;2023-09-18T04:48:27;19.07;;;7.47;;
9836;SDS011;4957;51.412;6.724;2023-09-18T04:50:52;16.30;;;7.67;;
9836;SDS011;4957;51.412;6.724;2023-09-18T04:53:18;16.43;;;7.70;;
9836;SDS011;4957;51.412;6.724;2023-09-18T04:55:45;10.60;;;6.93;;
9836;SDS011;4957;51.412;6.724;2023-09-18T04:58:14;16.30;;;7.40;;
9836;SDS011;4957;51.412;6.724;2023-09-18T05:00:40;13.83;;;6.10;;
9836;SDS011;4957;51.412;6.724;2023-09-18T05:03:06;14.57;;;6.50;;
9836;SDS011;4957;51.412;6.724;2023-09-18T05:05:33;10.03;;;5.40;;
9836;SDS011;4957;51.412;6.724;2023-09-18T05:08:00;9.80;;;5.47;;
9836;SDS011;4957;51.412;6.724;2023-09-18T05:10:28;13.03;;;4.90;;
9836;SDS011;4957;51.412;6.724;2023-09-18T05:12:54;12.17;;;4.97;;
9836;SDS011;4957;51.412;6.724;2023-09-18T05:15:23;12.33;;;4.97;;
9836;SDS011;4957;51.412;6.724;2023-09-18T05:17:51;10.60;;;5.00;;
9836;SDS011;4957;51.412;6.724;2023-09-18T05:20:21;9.07;;;5.13;;
9836;SDS011;4957;51.412;6.724;2023-09-18T05:22:49;9.63;;;4.87;;
9836;SDS011;4957;51.412;6.724;2023-09-18T05:25:15;5.60;;;4.20;;
9836;SDS011;4957;51.412;6.724;2023-09-18T05:27:41;8.43;;;5.00;;
9836;SDS011;4957;51.412;6.724;2023-09-18T05:30:14;9.50;;;5.10;;
9836;SDS011;4957;51.412;6.724;2023-09-18T05:32:44;9.13;;;4.83;;
9836;SDS011;4957;51.412;6.724;2023-09-18T05:35:10;8.93;;;5.70;;
9836;SDS011;4957;51.412;6.724;2023-09-18T05:37:37;8.80;;;4.53;;
9836;SDS011;4957;51.412;6.724;2023-09-18T05:40:08;7.37;;;4.67;;
9836;SDS011;4957;51.412;6.724;2023-09-18T05:42:35;10.77;;;5.40;;
9836;SDS011;4957;51.412;6.724;2023-09-18T05:45:02;6.30;;;4.80;;
9836;SDS011;4957;51.412;6.724;2023-09-18T05:47:29;9.13;;;4.57;;
9836;SDS011;4957;51.412;6.724;2023-09-18T05:49:57;9.80;;;5.33;;
9836;SDS011;4957;51.412;6.724;2023-09-18T05:52:22;9.13;;;5.03;;
9836;SDS011;4957;51.412;6.724;2023-09-18T05:54:49;8.77;;;4.57;;
9836;SDS011;4957;51.412;6.724;2023-09-18T05:57:14;8.07;;;5.17;;
9836;SDS011;4957;51.412;6.724;2023-09-18T05:59:41;10.43;;;5.23;;
9836;SDS011;4957;51.412;6.724;2023-09-18T06:02:09;10.07;;;4.93;;
9836;SDS011;4957;51.412;6.724;2023-09-18T06:04:34;11.70;;;4.90;;
9836;SDS011;4957;51.412;6.724;2023-09-18T06:07:02;11.40;;;4.40;;
9836;SDS011;4957;51.412;6.724;2023-09-18T06:09:31;12.30;;;4.63;;
9836;SDS011;4957;51.412;6.724;2023-09-18T06:11:57;7.73;;;4.90;;
9836;SDS011;4957;51.412;6.724;2023-09-18T06:14:24;9.17;;;5.20;;
9836;SDS011;4957;51.412;6.724;2023-09-18T06:16:50;10.47;;;4.53;;
9836;SDS011;4957;51.412;6.724;2023-09-18T06:19:16;14.00;;;4.40;;
9836;SDS011;4957;51.412;6.724;2023-09-18T06:21:44;11.33;;;4.30;;
9836;SDS011;4957;51.412;6.724;2023-09-18T06:24:10;9.80;;;4.20;;
9836;SDS011;4957;51.412;6.724;2023-09-18T06:26:36;9.27;;;4.27;;
9836;SDS011;4957;51.412;6.724;2023-09-18T06:29:02;7.03;;;4.33;;
9836;SDS011;4957;51.412;6.724;2023-09-18T06:31:28;10.70;;;4.27;;
9836;SDS011;4957;51.412;6.724;2023-09-18T06:33:56;15.00;;;3.80;;
9836;SDS011;4957;51.412;6.724;2023-09-18T06:36:22;8.03;;;3.97;;
9836;SDS011;4957;51.412;6.724;2023-09-18T06:38:47;8.37;;;3.93;;
9836;SDS011;4957;51.412;6.724;2023-09-18T06:41:13;8.37;;;4.07;;
9836;SDS011;4957;51.412;6.724;2023-09-18T06:43:39;7.67;;;3.70;;
9836;SDS011;4957;51.412;6.724;2023-09-18T06:46:06;7.70;;;3.50;;
9836;SDS011;4957;51.412;6.724;2023-09-18T06:48:32;8.80;;;4.20;;
9836;SDS011;4957;51.412;6.724;2023-09-18T06:50:58;13.13;;;3.97;;
9836;SDS011;4957;51.412;6.724;2023-09-18T06:53:27;7.90;;;3.90;;
9836;SDS011;4957;51.412;6.724;2023-09-18T06:55:53;7.83;;;4.13;;
9836;SDS011;4957;51.412;6.724;2023-09-18T06:58:19;11.90;;;4.83;;
9836;SDS011;4957;51.412;6.724;2023-09-18T07:00:45;9.50;;;4.67;;
9836;SDS011;4957;51.412;6.724;2023-09-18T07:03:11;13.50;;;4.63;;
9836;SDS011;4957;51.412;6.724;2023-09-18T07:05:37;8.40;;;4.23;;
9836;SDS011;4957;51.412;6.724;2023-09-18T07:08:05;11.77;;;5.17;;
9836;SDS011;4957;51.412;6.724;2023-09-18T07:10:34;15.40;;;6.10;;
9836;SDS011;4957;51.412;6.724;2023-09-18T07:13:00;10.50;;;5.30;;
9836;SDS011;4957;51.412;6.724;2023-09-18T07:15:26;11.53;;;4.40;;
9836;SDS011;4957;51.412;6.724;2023-09-18T07:17:52;11.23;;;4.57;;
9836;SDS011;4957;51.412;6.724;2023-09-18T07:20:18;11.13;;;4.23;;
9836;SDS011;4957;51.412;6.724;2023-09-18T07:22:47;14.17;;;4.57;;
9836;SDS011;4957;51.412;6.724;2023-09-18T07:25:13;13.87;;;4.40;;
9836;SDS011;4957;51.412;6.724;2023-09-18T07:27:40;6.10;;;3.60;;
9836;SDS011;4957;51.412;6.724;2023-09-18T07:30:11;7.10;;;4.50;;
9836;SDS011;4957;51.412;6.724;2023-09-18T07:33:01;10.77;;;5.00;;
9836;SDS011;4957;51.412;6.724;2023-09-18T07:39:06;10.23;;;4.00;;
9836;SDS011;4957;51.412;6.724;2023-09-18T07:45:31;8.37;;;3.47;;
9836;SDS011;4957;51.412;6.724;2023-09-18T07:48:21;10.03;;;3.53;;
9836;SDS011;4957;51.412;6.724;2023-09-18T07:50:59;7.87;;;3.03;;
9836;SDS011;4957;51.412;6.724;2023-09-18T08:00:19;2.67;;;1.47;;
9836;SDS011;4957;51.412;6.724;2023-09-18T08:02:54;5.63;;;1.93;;
9836;SDS011;4957;51.412;6.724;2023-09-18T08:05:25;3.60;;;1.77;;
9836;SDS011;4957;51.412;6.724;2023-09-18T08:07:55;3.43;;;1.67;;
9836;SDS011;4957;51.412;6.724;2023-09-18T08:10:22;4.90;;;1.70;;
9836;SDS011;4957;51.412;6.724;2023-09-18T08:12:51;3.90;;;1.77;;
9836;SDS011;4957;51.412;6.724;2023-09-18T08:15:18;4.27;;;1.80;;
9836;SDS011;4957;51.412;6.724;2023-09-18T08:17:48;4.30;;;1.50;;
9836;SDS011;4957;51.412;6.724;2023-09-18T08:20:14;5.30;;;1.60;;
9836;SDS011;4957;51.412;6.724;2023-09-18T08:22:50;8.03;;;1.80;;
9836;SDS011;4957;51.412;6.724;2023-09-18T08:25:21;5.13;;;1.90;;
9836;SDS011;4957;51.412;6.724;2023-09-18T08:27:52;2.57;;;1.67;;
9836;SDS011;4957;51.412;6.724;2023-09-18T08:30:18;5.30;;;2.20;;
9836;SDS011;4957;51.412;6.724;2023-09-18T08:32:46;4.77;;;1.60;;
9836;SDS011;4957;51.412;6.724;2023-09-18T08:35:12;5.93;;;1.30;;
9836;SDS011;4957;51.412;6.724;2023-09-18T08:37:41;1.67;;;1.20;;
9836;SDS011;4957;51.412;6.724;2023-09-18T08:40:09;4.37;;;1.50;;
9836;SDS011;4957;51.412;6.724;2023-09-18T08:42:36;6.50;;;1.97;;
9836;SDS011;4957;51.412;6.724;2023-09-18T08:45:08;4.80;;;1.60;;
9836;SDS011;4957;51.412;6.724;2023-09-18T08:47:36;3.73;;;1.30;;
9836;SDS011;4957;51.412;6.724;2023-09-18T08:50:10;4.60;;;1.80;;
9836;SDS011;4957;51.412;6.724;2023-09-18T08:52:37;2.63;;;1.30;;
9836;SDS011;4957;51.412;6.724;2023-09-18T08:55:04;6.77;;;2.00;;
9836;SDS011;4957;51.412;6.724;2023-09-18T08:57:31;7.20;;;1.77;;
9836;SDS011;4957;51.412;6.724;2023-09-18T09:00:01;5.00;;;1.70;;
9836;SDS011;4957;51.412;6.724;2023-09-18T09:02:45;3.97;;;2.00;;
9836;SDS011;4957;51.412;6.724;2023-09-18T09:08:37;3.57;;;1.40;;
9836;SDS011;4957;51.412;6.724;2023-09-18T09:11:21;6.53;;;1.40;;
9836;SDS011;4957;51.412;6.724;2023-09-18T09:14:11;2.53;;;1.50;;
9836;SDS011;4957;51.412;6.724;2023-09-18T09:16:58;2.67;;;1.40;;
9836;SDS011;4957;51.412;6.724;2023-09-18T09:22:45;2.50;;;1.30;;
9836;SDS011;4957;51.412;6.724;2023-09-18T09:25:53;2.70;;;1.33;;
9836;SDS011;4957;51.412;6.724;2023-09-18T09:38:00;2.80;;;1.23;;
9836;SDS011;4957;51.412;6.724;2023-09-18T09:40:39;2.63;;;1.27;;
9836;SDS011;4957;51.412;6.724;2023-09-18T09:43:07;5.20;;;2.00;;
9836;SDS011;4957;51.412;6.724;2023-09-18T09:45:56;1.67;;;0.97;;
9836;SDS011;4957;51.412;6.724;2023-09-18T09:48:59;5.03;;;1.40;;
9836;SDS011;4957;51.412;6.724;2023-09-18T09:51:26;2.10;;;1.07;;
9836;SDS011;4957;51.412;6.724;2023-09-18T10:00:02;4.40;;;2.67;;
9836;SDS011;4957;51.412;6.724;2023-09-18T10:02:59;3.70;;;1.30;;
9836;SDS011;4957;51.412;6.724;2023-09-18T10:12:12;4.33;;;1.50;;
9836;SDS011;4957;51.412;6.724;2023-09-18T10:15:13;2.17;;;1.20;;
9836;SDS011;4957;51.412;6.724;2023-09-18T10:17:46;2.27;;;1.40;;
9836;SDS011;4957;51.412;6.724;2023-09-18T10:20:14;3.63;;;1.40;;
9836;SDS011;4957;51.412;6.724;2023-09-18T10:22:56;6.13;;;1.30;;
9836;SDS011;4957;51.412;6.724;2023-09-18T10:35:26;4.23;;;1.77;;
9836;SDS011;4957;51.412;6.724;2023-09-18T10:37:53;3.10;;;1.30;;
9836;SDS011;4957;51.412;6.724;2023-09-18T10:40:20;4.80;;;1.63;;
9836;SDS011;4957;51.412;6.724;2023-09-18T10:46:05;1.60;;;1.10;;
9836;SDS011;4957;51.412;6.724;2023-09-18T10:48:37;1.67;;;1.13;;
9836;SDS011;4957;51.412;6.724;2023-09-18T10:59:51;3.77;;;1.40;;
9836;SDS011;4957;51.412;6.724;2023-09-18T11:02:28;4.53;;;1.30;;
9836;SDS011;4957;51.412;6.724;2023-09-18T11:05:06;1.40;;;1.30;;
9836;SDS011;4957;51.412;6.724;2023-09-18T11:07:35;4.03;;;1.53;;
9836;SDS011;4957;51.412;6.724;2023-09-18T11:10:20;3.10;;;1.67;;
9836;SDS011;4957;51.412;6.724;2023-09-18T11:13:34;4.37;;;1.63;;
9836;SDS011;4957;51.412;6.724;2023-09-18T11:19:22;4.30;;;1.70;;
9836;SDS011;4957;51.412;6.724;2023-09-18T11:22:06;5.13;;;1.50;;
9836;SDS011;4957;51.412;6.724;2023-09-18T11:28:00;6.20;;;1.57;;
9836;SDS011;4957;51.412;6.724;2023-09-18T11:33:31;3.07;;;1.47;;
9836;SDS011;4957;51.412;6.724;2023-09-18T11:42:18;3.17;;;1.57;;
9836;SDS011;4957;51.412;6.724;2023-09-18T11:44:53;6.93;;;1.67;;
9836;SDS011;4957;51.412;6.724;2023-09-18T11:47:24;8.13;;;2.20;;
9836;SDS011;4957;51.412;6.724;2023-09-18T11:53:01;4.33;;;1.57;;
9836;SDS011;4957;51.412;6.724;2023-09-18T11:55:27;6.60;;;1.50;;
9836;SDS011;4957;51.412;6.724;2023-09-18T11:57:54;3.73;;;1.77;;
9836;SDS011;4957;51.412;6.724;2023-09-18T12:00:23;3.50;;;2.00;;
9836;SDS011;4957;51.412;6.724;2023-09-18T12:02:50;3.27;;;1.50;;
9836;SDS011;4957;51.412;6.724;2023-09-18T12:05:19;3.40;;;1.50;;
9836;SDS011;4957;51.412;6.724;2023-09-18T12:07:45;1.90;;;1.57;;
9836;SDS011;4957;51.412;6.724;2023-09-18T12:10:15;2.00;;;1.40;;
9836;SDS011;4957;51.412;6.724;2023-09-18T12:12:42;2.70;;;1.77;;
9836;SDS011;4957;51.412;6.724;2023-09-18T12:15:12;4.47;;;1.80;;
9836;SDS011;4957;51.412;6.724;2023-09-18T12:17:39;3.23;;;1.50;;
9836;SDS011;4957;51.412;6.724;2023-09-18T12:20:05;5.33;;;1.60;;
9836;SDS011;4957;51.412;6.724;2023-09-18T12:22:31;5.70;;;1.40;;
9836;SDS011;4957;51.412;6.724;2023-09-18T12:27:54;3.17;;;1.53;;
9836;SDS011;4957;51.412;6.724;2023-09-18T12:30:21;3.67;;;1.87;;
9836;SDS011;4957;51.412;6.724;2023-09-18T12:32:48;4.80;;;2.60;;
9836;SDS011;4957;51.412;6.724;2023-09-18T12:35:14;5.87;;;2.43;;
9836;SDS011;4957;51.412;6.724;2023-09-18T12:37:43;5.90;;;1.40;;
9836;SDS011;4957;51.412;6.724;2023-09-18T12:40:25;2.73;;;1.60;;
9836;SDS011;4957;51.412;6.724;2023-09-18T12:42:58;3.10;;;1.50;;
9836;SDS011;4957;51.412;6.724;2023-09-18T12:45:25;2.87;;;1.77;;
9836;SDS011;4957;51.412;6.724;2023-09-18T12:47:54;16.23;;;1.77;;
9836;SDS011;4957;51.412;6.724;2023-09-18T12:50:20;3.70;;;1.53;;
9836;SDS011;4957;51.412;6.724;2023-09-18T12:52:46;3.20;;;1.50;;
9836;SDS011;4957;51.412;6.724;2023-09-18T12:55:25;3.33;;;1.40;;
9836;SDS011;4957;51.412;6.724;2023-09-18T12:57:52;2.40;;;1.80;;
9836;SDS011;4957;51.412;6.724;2023-09-18T13:00:30;5.07;;;2.40;;
9836;SDS011;4957;51.412;6.724;2023-09-18T13:02:56;3.73;;;1.60;;
9836;SDS011;4957;51.412;6.724;2023-09-18T13:05:22;3.20;;;1.80;;
9836;SDS011;4957;51.412;6.724;2023-09-18T13:07:52;2.43;;;1.60;;
9836;SDS011;4957;51.412;6.724;2023-09-18T13:10:19;5.20;;;1.50;;
9836;SDS011;4957;51.412;6.724;2023-09-18T13:12:49;3.03;;;1.40;;
9836;SDS011;4957;51.412;6.724;2023-09-18T13:15:30;3.87;;;2.00;;
9836;SDS011;4957;51.412;6.724;2023-09-18T13:18:00;4.77;;;1.83;;
9836;SDS011;4957;51.412;6.724;2023-09-18T13:20:34;2.80;;;1.40;;
9836;SDS011;4957;51.412;6.724;2023-09-18T13:23:00;2.07;;;1.50;;
9836;SDS011;4957;51.412;6.724;2023-09-18T13:25:29;3.13;;;2.17;;
9836;SDS011;4957;51.412;6.724;2023-09-18T13:28:00;3.77;;;2.00;;
9836;SDS011;4957;51.412;6.724;2023-09-18T13:30:32;4.40;;;1.90;;
9836;SDS011;4957;51.412;6.724;2023-09-18T13:33:05;7.97;;;1.80;;
9836;SDS011;4957;51.412;6.724;2023-09-18T13:35:36;2.87;;;1.67;;
9836;SDS011;4957;51.412;6.724;2023-09-18T13:38:04;4.03;;;1.20;;
9836;SDS011;4957;51.412;6.724;2023-09-18T13:40:32;4.10;;;1.37;;
9836;SDS011;4957;51.412;6.724;2023-09-18T13:42:58;1.93;;;1.33;;
9836;SDS011;4957;51.412;6.724;2023-09-18T13:45:24;1.70;;;1.47;;
9836;SDS011;4957;51.412;6.724;2023-09-18T13:47:50;2.87;;;1.70;;
9836;SDS011;4957;51.412;6.724;2023-09-18T13:50:25;4.27;;;1.80;;
9836;SDS011;4957;51.412;6.724;2023-09-18T13:53:09;2.10;;;1.20;;
9836;SDS011;4957;51.412;6.724;2023-09-18T13:55:35;2.40;;;1.23;;
9836;SDS011;4957;51.412;6.724;2023-09-18T13:58:01;3.97;;;1.47;;
9836;SDS011;4957;51.412;6.724;2023-09-18T14:00:29;4.60;;;1.40;;
9836;SDS011;4957;51.412;6.724;2023-09-18T14:02:56;3.13;;;1.80;;
9836;SDS011;4957;51.412;6.724;2023-09-18T14:05:21;1.43;;;1.33;;
9836;SDS011;4957;51.412;6.724;2023-09-18T14:07:47;2.73;;;1.70;;
9836;SDS011;4957;51.412;6.724;2023-09-18T14:10:13;2.10;;;1.57;;
9836;SDS011;4957;51.412;6.724;2023-09-18T14:12:40;2.10;;;1.40;;
9836;SDS011;4957;51.412;6.724;2023-09-18T14:15:07;2.00;;;1.10;;
9836;SDS011;4957;51.412;6.724;2023-09-18T14:17:34;2.20;;;1.30;;
9836;SDS011;4957;51.412;6.724;2023-09-18T14:20:04;4.23;;;1.80;;
9836;SDS011;4957;51.412;6.724;2023-09-18T14:22:36;2.73;;;1.50;;
9836;SDS011;4957;51.412;6.724;2023-09-18T14:25:02;4.70;;;1.50;;
9836;SDS011;4957;51.412;6.724;2023-09-18T14:27:31;1.70;;;1.50;;
9836;SDS011;4957;51.412;6.724;2023-09-18T14:29:57;4.67;;;1.80;;
9836;SDS011;4957;51.412;6.724;2023-09-18T14:32:33;2.93;;;1.47;;
9836;SDS011;4957;51.412;6.724;2023-09-18T14:35:07;6.13;;;1.70;;
9836;SDS011;4957;51.412;6.724;2023-09-18T14:37:34;2.97;;;1.40;;
9836;SDS011;4957;51.412;6.724;2023-09-18T14:40:01;3.13;;;1.50;;
9836;SDS011;4957;51.412;6.724;2023-09-18T14:42:28;4.13;;;1.80;;
9836;SDS011;4957;51.412;6.724;2023-09-18T14:44:57;2.97;;;1.90;;
9836;SDS011;4957;51.412;6.724;2023-09-18T14:47:28;3.67;;;1.60;;
9836;SDS011;4957;51.412;6.724;2023-09-18T14:49:54;2.37;;;1.33;;
9836;SDS011;4957;51.412;6.724;2023-09-18T14:52:21;4.07;;;2.33;;
9836;SDS011;4957;51.412;6.724;2023-09-18T14:54:48;2.50;;;2.00;;
9836;SDS011;4957;51.412;6.724;2023-09-18T14:57:15;5.83;;;2.90;;
9836;SDS011;4957;51.412;6.724;2023-09-18T14:59:43;3.27;;;1.93;;
9836;SDS011;4957;51.412;6.724;2023-09-18T15:02:12;3.40;;;1.50;;
9836;SDS011;4957;51.412;6.724;2023-09-18T15:04:56;4.47;;;1.50;;
9836;SDS011;4957;51.412;6.724;2023-09-18T15:07:29;3.43;;;1.40;;
9836;SDS011;4957;51.412;6.724;2023-09-18T15:09:54;2.43;;;1.30;;
9836;SDS011;4957;51.412;6.724;2023-09-18T15:12:26;2.10;;;1.90;;
9836;SDS011;4957;51.412;6.724;2023-09-18T15:14:52;6.77;;;2.93;;
9836;SDS011;4957;51.412;6.724;2023-09-18T15:17:18;4.03;;;2.67;;
9836;SDS011;4957;51.412;6.724;2023-09-18T15:19:44;3.57;;;2.30;;
9836;SDS011;4957;51.412;6.724;2023-09-18T15:25:02;2.00;;;1.73;;
9836;SDS011;4957;51.412;6.724;2023-09-18T15:27:28;4.53;;;1.70;;
9836;SDS011;4957;51.412;6.724;2023-09-18T15:33:09;4.73;;;1.60;;
9836;SDS011;4957;51.412;6.724;2023-09-18T15:35:38;3.97;;;2.40;;
9836;SDS011;4957;51.412;6.724;2023-09-18T15:38:06;1.80;;;1.53;;
9836;SDS011;4957;51.412;6.724;2023-09-18T15:40:32;2.73;;;1.73;;
9836;SDS011;4957;51.412;6.724;2023-09-18T15:42:58;1.60;;;1.40;;
9836;SDS011;4957;51.412;6.724;2023-09-18T15:45:24;2.10;;;1.50;;
9836;SDS011;4957;51.412;6.724;2023-09-18T15:47:53;2.73;;;1.60;;
9836;SDS011;4957;51.412;6.724;2023-09-18T15:50:19;5.03;;;1.50;;
9836;SDS011;4957;51.412;6.724;2023-09-18T15:52:46;2.40;;;1.47;;
9836;SDS011;4957;51.412;6.724;2023-09-18T15:55:12;1.33;;;1.23;;
9836;SDS011;4957;51.412;6.724;2023-09-18T15:57:38;2.60;;;1.40;;
9836;SDS011;4957;51.412;6.724;2023-09-18T16:00:17;1.73;;;1.23;;
9836;SDS011;4957;51.412;6.724;2023-09-18T16:02:50;2.30;;;1.50;;
9836;SDS011;4957;51.412;6.724;2023-09-18T16:05:19;1.87;;;1.60;;
9836;SDS011;4957;51.412;6.724;2023-09-18T16:07:50;1.33;;;1.20;;
9836;SDS011;4957;51.412;6.724;2023-09-18T16:10:23;2.73;;;1.87;;
9836;SDS011;4957;51.412;6.724;2023-09-18T16:12:49;3.87;;;1.90;;
9836;SDS011;4957;51.412;6.724;2023-09-18T16:15:15;2.73;;;1.70;;
9836;SDS011;4957;51.412;6.724;2023-09-18T16:17:44;3.63;;;1.63;;
9836;SDS011;4957;51.412;6.724;2023-09-18T16:20:10;4.00;;;2.00;;
9836;SDS011;4957;51.412;6.724;2023-09-18T16:22:36;9.10;;;1.60;;
9836;SDS011;4957;51.412;6.724;2023-09-18T16:25:11;1.37;;;1.07;;
9836;SDS011;4957;51.412;6.724;2023-09-18T16:27:40;3.20;;;1.50;;
9836;SDS011;4957;51.412;6.724;2023-09-18T16:30:11;3.67;;;1.70;;
9836;SDS011;4957;51.412;6.724;2023-09-18T16:32:38;3.43;;;1.80;;
9836;SDS011;4957;51.412;6.724;2023-09-18T16:35:04;6.27;;;2.60;;
9836;SDS011;4957;51.412;6.724;2023-09-18T16:37:32;3.43;;;1.73;;
9836;SDS011;4957;51.412;6.724;2023-09-18T16:40:00;2.93;;;1.80;;
9836;SDS011;4957;51.412;6.724;2023-09-18T16:42:26;1.60;;;1.50;;
9836;SDS011;4957;51.412;6.724;2023-09-18T16:44:52;2.90;;;1.37;;
9836;SDS011;4957;51.412;6.724;2023-09-18T16:47:18;5.23;;;1.80;;
9836;SDS011;4957;51.412;6.724;2023-09-18T16:52:58;6.40;;;2.37;;
9836;SDS011;4957;51.412;6.724;2023-09-18T17:01:51;4.57;;;2.03;;
9836;SDS011;4957;51.412;6.724;2023-09-18T17:04:20;4.57;;;2.47;;